Time;durP1;ratioP1;P1;durP2;ratioP2;P2;SDS_P1;SDS_P2;PMS_P1;PMS_P2;Temp;Humidity;BMP_temperature;BMP_pressure;BME280_temperature;BME280_humidity;BME280_pressure;Samples;Min_cycle;Max_cycle;Signal;HPM_P1;HPM_P2
2023/08/08 00:02:15;;;;;;;1.58;0.85;;;23.30;51.20;;;;;;5065589;28;20029;-63
2023/08/08 00:04:41;;;;;;;1.42;0.80;;;23.20;51.20;;;;;;5063391;28;20036;-63
2023/08/08 00:07:07;;;;;;;1.63;0.80;;;23.20;51.20;;;;;;5072746;28;20020;-63
2023/08/08 00:09:33;;;;;;;1.42;0.70;;;23.20;51.20;;;;;;5068712;28;20020;-62
2023/08/08 00:11:59;;;;;;;2.53;1.30;;;23.30;51.90;;;;;;5063328;28;20452;-63
2023/08/08 00:14:25;;;;;;;2.03;0.80;;;23.20;51.20;;;;;;5065596;28;20056;-63
2023/08/08 00:16:51;;;;;;;1.73;0.73;;;23.20;51.20;;;;;;5063601;28;20032;-64
2023/08/08 00:19:17;;;;;;;1.42;0.80;;;23.20;51.20;;;;;;5071261;28;20028;-63
2023/08/08 00:21:43;;;;;;;4.68;0.80;;;23.20;51.20;;;;;;5074293;28;20028;-63
2023/08/08 00:24:08;;;;;;;1.20;0.70;;;23.20;51.30;;;;;;5073160;28;20369;-65
2023/08/08 00:26:34;;;;;;;1.73;0.90;;;23.20;51.30;;;;;;5067376;28;20080;-63
2023/08/08 00:29:00;;;;;;;1.65;0.75;;;23.20;51.30;;;;;;5062935;28;20119;-64
2023/08/08 00:31:26;;;;;;;3.10;1.10;;;23.20;51.30;;;;;;5065205;28;20041;-63
2023/08/08 00:33:52;;;;;;;1.10;0.80;;;23.20;51.30;;;;;;5047990;28;20119;-65
2023/08/08 00:36:18;;;;;;;1.02;0.70;;;23.20;51.30;;;;;;5060764;28;20043;-62
2023/08/08 00:38:44;;;;;;;1.60;0.90;;;23.20;51.30;;;;;;5078958;28;20087;-62
2023/08/08 00:41:10;;;;;;;1.63;0.95;;;23.20;51.30;;;;;;5047748;28;20115;-63
2023/08/08 00:43:35;;;;;;;1.95;0.93;;;23.20;51.40;;;;;;5066486;28;20044;-61
2023/08/08 00:46:01;;;;;;;1.90;1.00;;;23.20;51.40;;;;;;5069527;28;20464;-64
2023/08/08 00:48:28;;;;;;;1.13;0.80;;;23.20;51.40;;;;;;5063803;28;20032;-64
2023/08/08 00:50:54;;;;;;;2.17;0.95;;;23.20;51.40;;;;;;5044372;28;20086;-63
2023/08/08 00:53:22;;;;;;;2.75;0.75;;;23.20;51.40;;;;;;5063856;28;20033;-65
2023/08/08 00:55:48;;;;;;;2.47;1.13;;;23.20;51.40;;;;;;5065438;28;20055;-64
2023/08/08 00:58:15;;;;;;;1.73;0.90;;;23.20;51.40;;;;;;5072365;28;20033;-62
2023/08/08 01:00:41;;;;;;;1.85;1.10;;;23.10;51.40;;;;;;5070690;28;20114;-64
2023/08/08 01:03:08;;;;;;;1.00;0.70;;;23.10;51.40;;;;;;5067480;28;20100;-66
2023/08/08 01:05:42;;;;;;;1.60;0.80;;;23.10;51.40;;;;;;5060455;28;20409;-64
2023/08/08 01:08:08;;;;;;;1.92;0.90;;;23.10;51.40;;;;;;5068699;28;20091;-63
2023/08/08 01:10:38;;;;;;;2.33;0.80;;;23.10;51.40;;;;;;5064410;28;20489;-66
2023/08/08 01:13:12;;;;;;;1.13;0.77;;;23.10;51.40;;;;;;5066931;28;20406;-62
2023/08/08 01:15:39;;;;;;;1.48;1.00;;;23.10;51.40;;;;;;5071235;28;20052;-65
2023/08/08 01:18:07;;;;;;;1.58;0.82;;;23.10;51.40;;;;;;5048727;28;20395;-64
2023/08/08 01:20:34;;;;;;;1.83;0.93;;;23.10;51.40;;;;;;5073562;28;20019;-63
2023/08/08 01:23:12;;;;;;;1.50;0.80;;;23.10;51.50;;;;;;5069969;28;20048;-62
2023/08/08 01:25:40;;;;;;;1.75;0.90;;;23.10;51.50;;;;;;5062402;28;20108;-64
2023/08/08 01:28:06;;;;;;;2.28;1.17;;;23.10;51.50;;;;;;5069761;28;20048;-63
2023/08/08 01:30:33;;;;;;;1.98;1.00;;;23.10;51.50;;;;;;5065661;28;20033;-65
2023/08/08 01:33:00;;;;;;;1.05;0.70;;;23.10;51.60;;;;;;5048226;28;20074;-61
2023/08/08 01:35:31;;;;;;;1.98;1.00;;;23.10;51.60;;;;;;5043885;28;20021;-62
2023/08/08 01:38:33;;;;;;;0.90;0.63;;;23.10;51.60;;;;;;5051686;28;20024;-63
2023/08/08 01:41:00;;;;;;;1.27;0.60;;;23.10;51.70;;;;;;5033464;28;20131;-63
2023/08/08 01:43:26;;;;;;;1.30;0.82;;;23.10;51.70;;;;;;5049508;28;20036;-61
2023/08/08 01:45:53;;;;;;;1.23;0.73;;;23.10;51.80;;;;;;5054818;28;20356;-64
2023/08/08 01:48:20;;;;;;;1.58;0.70;;;23.10;51.80;;;;;;5044066;28;20021;-62
2023/08/08 01:50:46;;;;;;;0.90;0.70;;;23.10;51.80;;;;;;5051772;28;20047;-62
2023/08/08 01:53:12;;;;;;;0.75;0.57;;;23.00;51.80;;;;;;5068648;28;20296;-64
2023/08/08 01:55:38;;;;;;;1.00;0.80;;;23.00;51.80;;;;;;5045326;28;20116;-61
2023/08/08 01:58:04;;;;;;;1.60;1.00;;;23.00;51.80;;;;;;5045847;28;20052;-67
2023/08/08 02:00:30;;;;;;;2.15;0.90;;;23.00;51.90;;;;;;5054319;28;20427;-63
2023/08/08 02:02:56;;;;;;;1.85;0.77;;;23.00;51.90;;;;;;5032331;28;20091;-61
2023/08/08 02:05:22;;;;;;;1.88;0.80;;;23.00;51.90;;;;;;5046654;28;20017;-62
2023/08/08 02:07:48;;;;;;;2.28;0.82;;;23.00;51.90;;;;;;5050977;28;20065;-64
2023/08/08 02:10:14;;;;;;;2.08;1.05;;;23.00;51.90;;;;;;5070621;28;20028;-63
2023/08/08 02:12:40;;;;;;;2.03;0.88;;;23.00;51.90;;;;;;5063269;28;20035;-65
2023/08/08 02:15:06;;;;;;;1.38;0.75;;;23.00;52.00;;;;;;5047612;28;20051;-62
2023/08/08 02:17:32;;;;;;;2.17;0.88;;;23.00;52.00;;;;;;5071887;28;21502;-64
2023/08/08 02:19:58;;;;;;;1.98;0.90;;;23.00;52.00;;;;;;5054545;28;20131;-64
2023/08/08 02:22:25;;;;;;;1.30;0.70;;;23.00;52.00;;;;;;5072384;28;20034;-63
2023/08/08 02:24:51;;;;;;;1.13;0.95;;;23.00;52.00;;;;;;5050598;28;20024;-63
2023/08/08 02:27:17;;;;;;;1.98;0.85;;;23.00;52.00;;;;;;5050063;28;20020;-63
2023/08/08 02:29:43;;;;;;;1.98;1.00;;;23.00;52.00;;;;;;5068035;28;20364;-64
2023/08/08 02:32:09;;;;;;;2.13;0.82;;;23.00;52.00;;;;;;5078901;28;20124;-63
2023/08/08 02:34:35;;;;;;;2.47;1.00;;;23.00;52.10;;;;;;5067624;28;20107;-65
2023/08/08 02:37:00;;;;;;;1.90;0.75;;;23.00;52.10;;;;;;5073099;28;20028;-63
2023/08/08 02:39:26;;;;;;;1.90;0.80;;;23.00;52.10;;;;;;5068353;28;20662;-63
2023/08/08 02:41:52;;;;;;;1.35;0.90;;;22.90;52.00;;;;;;5073221;28;20040;-63
2023/08/08 02:44:19;;;;;;;2.05;0.70;;;23.00;52.10;;;;;;5055568;28;20021;-63
2023/08/08 02:46:46;;;;;;;1.25;0.80;;;23.00;52.10;;;;;;5029485;28;20148;-63
2023/08/08 02:49:11;;;;;;;2.20;0.82;;;22.90;52.10;;;;;;5027155;28;20038;-63
2023/08/08 02:51:37;;;;;;;1.55;0.82;;;22.90;52.10;;;;;;5014597;28;20055;-64
2023/08/08 02:54:03;;;;;;;1.75;0.90;;;22.90;52.10;;;;;;5039021;28;20056;-64
2023/08/08 02:56:32;;;;;;;1.63;0.70;;;22.90;52.10;;;;;;5023931;28;20060;-65
2023/08/08 02:58:58;;;;;;;1.25;0.75;;;22.90;52.10;;;;;;5036966;28;20476;-65
2023/08/08 03:01:24;;;;;;;1.10;0.70;;;22.90;52.10;;;;;;5024149;28;20423;-65
2023/08/08 03:03:50;;;;;;;1.38;0.70;;;22.90;52.10;;;;;;5027845;28;20317;-64
2023/08/08 03:06:18;;;;;;;2.55;0.80;;;22.90;52.20;;;;;;5045656;28;20033;-63
2023/08/08 03:08:44;;;;;;;2.55;0.90;;;22.90;52.20;;;;;;5032637;28;20486;-63
2023/08/08 03:11:11;;;;;;;2.67;0.80;;;22.90;52.20;;;;;;5026092;28;20340;-64
2023/08/08 03:13:37;;;;;;;1.98;1.02;;;22.90;52.20;;;;;;5046846;28;20151;-63
2023/08/08 03:16:04;;;;;;;1.88;0.95;;;22.90;52.20;;;;;;5033688;28;20037;-62
2023/08/08 03:18:30;;;;;;;1.42;0.80;;;22.90;52.20;;;;;;5027436;28;20029;-63
2023/08/08 03:20:56;;;;;;;1.88;0.82;;;22.90;52.20;;;;;;5025522;28;20463;-62
2023/08/08 03:23:23;;;;;;;2.00;0.80;;;22.90;52.20;;;;;;5043208;28;20021;-63
2023/08/08 03:25:50;;;;;;;1.88;1.00;;;22.90;52.20;;;;;;5030251;28;20025;-64
2023/08/08 03:28:17;;;;;;;1.23;0.75;;;22.90;52.20;;;;;;5020349;28;20035;-62
2023/08/08 03:30:43;;;;;;;1.92;0.80;;;22.90;52.30;;;;;;5023963;28;20034;-64
2023/08/08 03:33:10;;;;;;;1.95;1.00;;;22.90;52.30;;;;;;5033662;28;20134;-64
2023/08/08 03:35:36;;;;;;;1.65;0.70;;;22.90;52.40;;;;;;5024521;28;20060;-64
2023/08/08 03:38:02;;;;;;;1.90;0.80;;;22.90;52.40;;;;;;5026731;28;20282;-62
2023/08/08 03:40:29;;;;;;;1.55;0.90;;;22.90;52.40;;;;;;5028167;28;20025;-62
2023/08/08 03:42:54;;;;;;;1.88;0.98;;;22.80;52.40;;;;;;5026381;28;20151;-63
2023/08/08 03:45:20;;;;;;;1.83;0.73;;;22.90;52.50;;;;;;5027179;28;20436;-64
2023/08/08 03:47:46;;;;;;;3.60;0.95;;;22.90;52.50;;;;;;5022761;28;20367;-63
2023/08/08 03:50:13;;;;;;;2.38;1.02;;;22.80;52.50;;;;;;5032313;28;20374;-65
2023/08/08 03:52:39;;;;;;;1.88;0.77;;;22.80;52.60;;;;;;5030431;28;20030;-62
2023/08/08 03:55:09;;;;;;;1.92;1.02;;;22.90;53.30;;;;;;5018543;28;20128;-64
2023/08/08 03:57:36;;;;;;;1.88;0.90;;;22.80;52.70;;;;;;5023224;28;20064;-62
2023/08/08 04:00:03;;;;;;;2.70;1.00;;;22.90;52.80;;;;;;5025718;28;20037;-63
2023/08/08 04:02:39;;;;;;;2.40;1.00;;;22.80;52.80;;;;;;5026640;28;20100;-62
2023/08/08 04:05:05;;;;;;;2.40;1.15;;;22.80;52.80;;;;;;5018693;28;20402;-63
2023/08/08 04:07:31;;;;;;;2.22;1.00;;;22.80;52.90;;;;;;5024096;28;20045;-64
2023/08/08 04:09:58;;;;;;;2.30;1.10;;;22.80;52.90;;;;;;5028636;28;20033;-62
2023/08/08 04:12:24;;;;;;;2.03;1.10;;;22.80;52.90;;;;;;5023461;28;20033;-61
2023/08/08 04:14:49;;;;;;;2.47;1.02;;;22.80;52.90;;;;;;5039530;28;20033;-64
2023/08/08 04:17:15;;;;;;;1.48;0.95;;;22.80;52.90;;;;;;5020124;28;20445;-63
2023/08/08 04:19:41;;;;;;;1.90;0.88;;;22.80;53.00;;;;;;5030241;28;20421;-63
2023/08/08 04:22:07;;;;;;;2.05;0.95;;;22.80;53.00;;;;;;5029165;28;20104;-65
2023/08/08 04:24:33;;;;;;;3.03;1.00;;;22.80;53.00;;;;;;5030918;28;20033;-65
2023/08/08 04:26:59;;;;;;;2.70;1.00;;;22.80;53.00;;;;;;5031422;28;20383;-65
2023/08/08 04:29:25;;;;;;;2.67;1.15;;;22.80;53.00;;;;;;5029175;28;20017;-64
2023/08/08 04:31:51;;;;;;;1.92;0.98;;;22.80;53.00;;;;;;5026634;28;20171;-63
2023/08/08 04:34:17;;;;;;;1.20;0.80;;;22.80;53.00;;;;;;5024466;28;20033;-65
2023/08/08 04:36:43;;;;;;;1.85;0.80;;;22.80;53.70;;;;;;5026612;28;20041;-66
2023/08/08 04:39:08;;;;;;;1.98;0.98;;;22.80;53.10;;;;;;5021973;28;20026;-63
2023/08/08 04:41:34;;;;;;;2.47;0.85;;;22.80;53.10;;;;;;5022930;28;20025;-62
2023/08/08 04:44:00;;;;;;;1.90;0.93;;;22.80;53.10;;;;;;5025823;28;20041;-63
2023/08/08 04:46:26;;;;;;;1.80;0.93;;;22.80;53.10;;;;;;5051594;28;20045;-63
2023/08/08 04:48:52;;;;;;;2.08;0.82;;;22.80;53.10;;;;;;5064352;28;20025;-63
2023/08/08 04:51:18;;;;;;;1.83;0.85;;;22.80;53.10;;;;;;5065892;28;20410;-64
2023/08/08 04:53:44;;;;;;;1.52;1.02;;;22.80;53.10;;;;;;5065124;28;20035;-62
2023/08/08 04:56:10;;;;;;;1.85;1.00;;;22.80;53.10;;;;;;5062248;28;20355;-61
2023/08/08 04:58:36;;;;;;;1.88;1.05;;;22.80;53.10;;;;;;5066792;28;20066;-65
2023/08/08 05:01:02;;;;;;;3.42;0.90;;;22.80;53.20;;;;;;5060948;28;20021;-62
2023/08/08 05:03:27;;;;;;;1.83;1.00;;;22.70;53.10;;;;;;5068367;28;20112;-64
2023/08/08 05:05:53;;;;;;;2.60;1.10;;;22.80;53.20;;;;;;5066228;28;20035;-62
2023/08/08 05:08:19;;;;;;;2.13;0.90;;;22.70;53.20;;;;;;5066669;28;20020;-64
2023/08/08 05:10:45;;;;;;;1.33;0.82;;;22.80;53.30;;;;;;5066524;28;21028;-62
2023/08/08 05:13:12;;;;;;;1.95;0.93;;;22.80;53.30;;;;;;5061365;28;20204;-63
2023/08/08 05:15:38;;;;;;;2.05;0.80;;;22.80;53.30;;;;;;5070114;28;20027;-64
2023/08/08 05:18:04;;;;;;;3.28;1.10;;;22.80;53.90;;;;;;5044609;28;20024;-63
2023/08/08 05:20:30;;;;;;;2.70;1.00;;;22.80;53.30;;;;;;5064625;28;20085;-63
2023/08/08 05:22:56;;;;;;;2.47;1.00;;;22.80;53.30;;;;;;5063045;28;20059;-63
2023/08/08 05:25:22;;;;;;;3.90;1.00;;;22.80;53.30;;;;;;5080270;28;20073;-62
2023/08/08 05:27:49;;;;;;;2.10;1.00;;;22.70;53.30;;;;;;5078111;28;20043;-64
2023/08/08 05:30:15;;;;;;;2.00;0.82;;;22.80;53.40;;;;;;5062096;28;20135;-66
2023/08/08 05:32:41;;;;;;;2.47;1.13;;;22.80;53.40;;;;;;5062260;28;20051;-63
2023/08/08 05:35:08;;;;;;;2.35;1.13;;;22.80;53.40;;;;;;5059480;28;20100;-65
2023/08/08 05:37:33;;;;;;;2.75;1.10;;;22.80;53.40;;;;;;5083158;28;20029;-62
2023/08/08 05:39:59;;;;;;;2.05;1.10;;;22.80;53.40;;;;;;5083030;28;20462;-64
2023/08/08 05:42:26;;;;;;;1.67;0.82;;;22.80;53.50;;;;;;5085766;28;20238;-63
2023/08/08 05:44:52;;;;;;;2.20;1.10;;;22.80;54.10;;;;;;5078613;28;20335;-63
2023/08/08 05:47:18;;;;;;;3.08;1.35;;;22.80;53.50;;;;;;5083802;28;20052;-64
2023/08/08 05:49:44;;;;;;;2.15;1.13;;;22.80;53.50;;;;;;5052156;28;20036;-61
2023/08/08 05:52:10;;;;;;;2.42;1.20;;;22.80;53.50;;;;;;5083131;28;20036;-63
2023/08/08 05:54:36;;;;;;;1.92;0.90;;;22.80;53.50;;;;;;5085261;28;20347;-62
2023/08/08 05:57:02;;;;;;;2.03;1.13;;;22.80;53.50;;;;;;5085890;28;20024;-63
2023/08/08 05:59:28;;;;;;;4.10;1.00;;;22.80;53.60;;;;;;5085065;28;20020;-63
2023/08/08 06:01:54;;;;;;;2.67;1.10;;;22.80;53.60;;;;;;5085781;28;20051;-61
2023/08/08 06:04:20;;;;;;;2.58;1.00;;;22.80;53.60;;;;;;5067985;28;20040;-63
2023/08/08 06:06:48;;;;;;;2.70;0.95;;;22.80;53.60;;;;;;5078192;28;20375;-64
2023/08/08 06:09:15;;;;;;;1.95;0.93;;;22.80;53.60;;;;;;5072931;28;20139;-63
2023/08/08 06:11:41;;;;;;;4.05;1.27;;;22.90;53.70;;;;;;5062199;28;20104;-64
2023/08/08 06:14:07;;;;;;;1.90;1.10;;;22.80;53.70;;;;;;5080131;28;20051;-63
2023/08/08 06:16:32;;;;;;;1.90;1.00;;;22.90;53.70;;;;;;5073934;28;20068;-61
2023/08/08 06:18:58;;;;;;;2.03;0.85;;;22.90;53.70;;;;;;5075383;28;20395;-66
2023/08/08 06:21:24;;;;;;;2.13;0.98;;;22.80;53.70;;;;;;5083419;28;20024;-62
2023/08/08 06:23:52;;;;;;;2.67;1.27;;;22.90;53.80;;;;;;5083632;28;21339;-63
2023/08/08 06:26:18;;;;;;;5.20;1.05;;;22.90;53.70;;;;;;5080283;28;20036;-67
2023/08/08 06:28:44;;;;;;;3.15;1.15;;;22.90;53.80;;;;;;5059800;28;20036;-64
2023/08/08 06:31:09;;;;;;;2.03;1.00;;;22.90;53.80;;;;;;5079113;28;20028;-62
2023/08/08 06:33:35;;;;;;;1.80;1.00;;;22.90;53.80;;;;;;5062302;28;20121;-63
2023/08/08 06:36:03;;;;;;;2.45;1.02;;;22.90;53.80;;;;;;5066953;28;20024;-65
2023/08/08 06:38:29;;;;;;;2.92;1.02;;;22.90;53.80;;;;;;5069271;28;20388;-61
2023/08/08 06:40:56;;;;;;;2.03;1.00;;;22.90;53.80;;;;;;5063281;28;20093;-64
2023/08/08 06:43:22;;;;;;;1.83;1.13;;;22.90;53.80;;;;;;5069678;28;20047;-65
2023/08/08 06:45:47;;;;;;;1.73;0.88;;;22.90;53.80;;;;;;5069647;28;20036;-63
2023/08/08 06:48:13;;;;;;;2.92;0.90;;;22.90;53.80;;;;;;5070792;28;20024;-62
2023/08/08 06:50:39;;;;;;;2.10;1.00;;;22.90;53.80;;;;;;5074709;28;20068;-65
2023/08/08 06:53:05;;;;;;;2.25;1.00;;;23.00;53.80;;;;;;5080467;28;20053;-65
2023/08/08 06:55:31;;;;;;;2.20;0.80;;;23.00;53.90;;;;;;5084464;28;20361;-63
2023/08/08 06:57:57;;;;;;;2.67;1.17;;;22.90;53.80;;;;;;5085076;28;20028;-63
2023/08/08 07:00:23;;;;;;;3.15;0.88;;;23.00;53.80;;;;;;5087032;28;20412;-62
2023/08/08 07:02:49;;;;;;;2.88;1.10;;;22.90;53.70;;;;;;5087774;28;20024;-62
2023/08/08 07:05:15;;;;;;;2.15;1.13;;;23.00;53.70;;;;;;5085155;28;20035;-64
2023/08/08 07:07:41;;;;;;;1.55;0.80;;;23.00;53.70;;;;;;5070370;28;20023;-66
2023/08/08 07:10:07;;;;;;;1.25;0.70;;;23.00;53.70;;;;;;5088750;28;20032;-64
2023/08/08 07:12:33;;;;;;;2.58;0.88;;;23.00;54.20;;;;;;5084957;28;20113;-62
2023/08/08 07:14:59;;;;;;;2.33;1.15;;;23.00;53.60;;;;;;5084184;28;20090;-61
2023/08/08 07:17:24;;;;;;;1.85;0.85;;;23.00;53.50;;;;;;5078659;28;20033;-63
2023/08/08 07:19:50;;;;;;;2.65;0.80;;;23.00;53.50;;;;;;5084870;28;20113;-63
2023/08/08 07:22:16;;;;;;;2.40;0.98;;;23.00;53.40;;;;;;5081405;28;20024;-61
2023/08/08 07:24:43;;;;;;;1.38;0.80;;;23.00;53.40;;;;;;5070115;28;20028;-63
2023/08/08 07:27:08;;;;;;;2.00;0.80;;;23.00;53.40;;;;;;5086575;28;20358;-63
2023/08/08 07:29:34;;;;;;;4.05;1.05;;;23.00;53.30;;;;;;5085359;28;20098;-64
2023/08/08 07:32:03;;;;;;;1.98;0.80;;;23.00;53.20;;;;;;5082392;28;20036;-63
2023/08/08 07:34:29;;;;;;;2.25;0.88;;;23.00;53.10;;;;;;5078830;28;20044;-64
2023/08/08 07:36:56;;;;;;;1.83;0.80;;;23.00;52.90;;;;;;5087224;28;20664;-64
2023/08/08 07:39:22;;;;;;;1.05;0.80;;;23.00;52.80;;;;;;5075692;28;20032;-64
2023/08/08 07:41:48;;;;;;;1.95;0.70;;;23.10;52.70;;;;;;5079267;28;20085;-63
2023/08/08 07:44:15;;;;;;;1.10;0.70;;;23.10;52.50;;;;;;5081567;28;20119;-63
2023/08/08 07:46:41;;;;;;;1.45;0.73;;;23.10;52.40;;;;;;5054224;28;20057;-63
2023/08/08 07:49:09;;;;;;;1.52;0.65;;;23.00;52.20;;;;;;5052559;28;20120;-65
2023/08/08 07:51:35;;;;;;;1.00;0.50;;;23.10;52.00;;;;;;5052337;28;20029;-65
2023/08/08 07:54:01;;;;;;;1.88;0.60;;;23.10;51.80;;;;;;5051716;28;20028;-63
2023/08/08 07:56:27;;;;;;;1.77;0.70;;;23.10;51.70;;;;;;5052794;28;20380;-62
2023/08/08 07:58:53;;;;;;;1.50;0.65;;;23.10;51.60;;;;;;5062884;28;20056;-65
2023/08/08 08:01:19;;;;;;;1.98;0.70;;;23.10;51.50;;;;;;5061467;28;20115;-65
2023/08/08 08:03:45;;;;;;;2.10;0.70;;;23.10;51.30;;;;;;5056264;28;20231;-60
2023/08/08 08:06:14;;;;;;;1.30;0.60;;;23.10;51.20;;;;;;5054495;28;20107;-65
2023/08/08 08:08:39;;;;;;;1.83;0.73;;;23.10;51.10;;;;;;5052191;28;20025;-63
2023/08/08 08:11:05;;;;;;;0.95;0.57;;;23.10;51.00;;;;;;5053686;28;20040;-65
2023/08/08 08:13:32;;;;;;;1.55;0.70;;;23.10;50.90;;;;;;5053791;28;20075;-63
2023/08/08 08:15:58;;;;;;;1.55;0.50;;;23.10;50.70;;;;;;5053419;28;20424;-62
2023/08/08 08:18:23;;;;;;;1.33;0.60;;;23.10;50.60;;;;;;5053382;28;20112;-67
2023/08/08 08:20:49;;;;;;;0.90;0.50;;;23.20;50.50;;;;;;5052972;28;20424;-61
2023/08/08 08:23:16;;;;;;;1.77;0.50;;;23.20;50.40;;;;;;5054297;28;20167;-66
2023/08/08 08:25:42;;;;;;;1.38;0.60;;;23.20;50.30;;;;;;5052432;28;20499;-61
2023/08/08 08:28:07;;;;;;;1.20;0.60;;;23.20;50.10;;;;;;5051486;28;20151;-64
2023/08/08 08:30:33;;;;;;;1.38;0.60;;;23.20;50.00;;;;;;5052514;28;20179;-63
2023/08/08 08:33:00;;;;;;;0.80;0.50;;;23.20;49.90;;;;;;5052724;28;20370;-65
2023/08/08 08:35:26;;;;;;;1.30;0.60;;;23.20;49.70;;;;;;5052398;28;20364;-67
2023/08/08 08:37:52;;;;;;;2.10;0.73;;;23.20;49.60;;;;;;5052987;28;20021;-65
2023/08/08 08:40:18;;;;;;;1.92;0.60;;;23.20;49.50;;;;;;5065320;28;20396;-64
2023/08/08 08:42:45;;;;;;;0.93;0.50;;;23.20;49.40;;;;;;5072884;28;20038;-66
2023/08/08 08:45:13;;;;;;;0.90;0.47;;;23.20;49.30;;;;;;5077378;28;20111;-62
2023/08/08 08:47:42;;;;;;;0.77;0.40;;;23.20;49.20;;;;;;5093528;28;20075;-64
2023/08/08 08:50:08;;;;;;;1.15;0.50;;;23.20;49.10;;;;;;5093364;28;21896;-65
2023/08/08 08:52:35;;;;;;;1.40;0.70;;;23.30;49.10;;;;;;5092897;28;20109;-65
2023/08/08 08:55:02;;;;;;;0.93;0.50;;;23.30;49.00;;;;;;5093455;28;20024;-63
2023/08/08 08:57:29;;;;;;;1.17;0.52;;;23.30;48.90;;;;;;5092501;28;20032;-64
2023/08/08 08:59:55;;;;;;;0.80;0.40;;;23.30;48.80;;;;;;5093274;28;20066;-63
2023/08/08 09:02:21;;;;;;;0.95;0.47;;;23.30;48.70;;;;;;5062909;28;20128;-63
2023/08/08 09:04:48;;;;;;;0.47;0.40;;;23.30;48.60;;;;;;5078914;28;20460;-66
2023/08/08 09:07:15;;;;;;;0.95;0.40;;;23.30;48.60;;;;;;5080067;28;20040;-62
2023/08/08 09:09:43;;;;;;;1.42;0.50;;;23.40;48.50;;;;;;5082704;28;20032;-61
2023/08/08 09:12:10;;;;;;;0.40;0.40;;;23.30;48.40;;;;;;5065144;28;20142;-65
2023/08/08 09:14:40;;;;;;;1.88;0.52;;;23.30;48.30;;;;;;5063912;28;20435;-65
2023/08/08 09:17:14;;;;;;;0.70;0.50;;;23.40;48.30;;;;;;5083660;28;20100;-66
2023/08/08 09:19:44;;;;;;;1.05;0.50;;;23.40;48.20;;;;;;5080907;28;20070;-63
2023/08/08 09:22:10;;;;;;;1.02;0.47;;;23.40;48.10;;;;;;5079976;28;20327;-63
2023/08/08 09:24:40;;;;;;;1.08;0.40;;;23.40;48.00;;;;;;5085110;28;20040;-67
2023/08/08 09:27:10;;;;;;;0.95;0.47;;;23.40;47.80;;;;;;5066786;28;20028;-62
2023/08/08 09:29:36;;;;;;;0.60;0.50;;;23.40;47.70;;;;;;5065743;28;20031;-63
2023/08/08 09:32:08;;;;;;;0.63;0.50;;;23.40;47.50;;;;;;5084051;28;21020;-62
2023/08/08 09:34:35;;;;;;;0.75;0.38;;;23.40;47.50;;;;;;5082723;28;20423;-64
2023/08/08 09:37:02;;;;;;;0.52;0.40;;;23.40;47.50;;;;;;5064331;28;20055;-62
2023/08/08 09:39:28;;;;;;;0.65;0.30;;;23.40;47.30;;;;;;5082218;28;20043;-67
2023/08/08 09:41:56;;;;;;;1.48;0.40;;;23.50;47.30;;;;;;5066317;28;20028;-61
2023/08/08 09:44:27;;;;;;;1.15;0.30;;;23.50;47.10;;;;;;5080559;28;20035;-62
2023/08/08 09:46:54;;;;;;;0.68;0.40;;;23.50;47.00;;;;;;5083724;28;20087;-64
2023/08/08 09:49:22;;;;;;;0.73;0.50;;;23.40;46.80;;;;;;5074741;28;20435;-63
2023/08/08 09:51:49;;;;;;;1.05;0.47;;;23.40;46.60;;;;;;5068064;28;20036;-64
2023/08/08 09:54:16;;;;;;;1.38;0.40;;;23.50;46.60;;;;;;5081251;28;20039;-63
2023/08/08 09:56:43;;;;;;;0.40;0.30;;;23.50;46.50;;;;;;5081006;28;20028;-63
2023/08/08 09:59:11;;;;;;;0.65;0.30;;;23.50;46.50;;;;;;5083008;28;20028;-64
2023/08/08 10:01:39;;;;;;;1.13;0.55;;;23.50;46.40;;;;;;5082505;28;20020;-61
2023/08/08 10:04:06;;;;;;;0.77;0.30;;;23.50;46.40;;;;;;5077832;28;20031;-63
2023/08/08 10:06:33;;;;;;;0.93;0.28;;;23.50;46.30;;;;;;5084340;28;20024;-62
2023/08/08 10:09:05;;;;;;;1.25;0.43;;;23.50;46.30;;;;;;5079232;28;20020;-62
2023/08/08 10:11:33;;;;;;;0.88;0.32;;;23.50;46.30;;;;;;5080328;28;20025;-64
2023/08/08 10:14:03;;;;;;;0.95;0.30;;;23.50;46.30;;;;;;5080483;28;20024;-63
2023/08/08 10:16:33;;;;;;;0.68;0.40;;;23.50;46.10;;;;;;5065743;28;20051;-61
2023/08/08 10:19:03;;;;;;;1.15;0.40;;;23.50;46.00;;;;;;5057663;28;20369;-62
2023/08/08 10:21:37;;;;;;;0.30;0.30;;;23.60;46.00;;;;;;5077386;28;20035;-64
2023/08/08 10:24:06;;;;;;;0.30;0.20;;;23.50;45.80;;;;;;5082857;28;20020;-61
2023/08/08 10:26:33;;;;;;;1.23;0.50;;;23.60;45.80;;;;;;5085086;28;20032;-64
2023/08/08 10:29:00;;;;;;;0.73;0.47;;;23.60;45.70;;;;;;5081527;28;20043;-63
2023/08/08 10:31:26;;;;;;;1.15;0.50;;;23.60;45.60;;;;;;5087346;28;20036;-61
2023/08/08 10:34:04;;;;;;;0.47;0.40;;;23.60;45.60;;;;;;5065078;28;20032;-62
2023/08/08 10:36:44;;;;;;;0.50;0.30;;;23.60;45.40;;;;;;5075627;28;20181;-64
2023/08/08 10:39:17;;;;;;;1.13;0.30;;;23.60;45.30;;;;;;5078462;28;20104;-62
2023/08/08 10:41:50;;;;;;;0.63;0.40;;;23.60;45.20;;;;;;5077626;28;20073;-65
2023/08/08 10:44:23;;;;;;;0.30;0.25;;;23.60;45.20;;;;;;5058645;28;20028;-62
2023/08/08 10:46:51;;;;;;;0.45;0.28;;;23.60;45.20;;;;;;5049168;28;20482;-62
2023/08/08 10:49:17;;;;;;;0.35;0.30;;;23.60;45.10;;;;;;5065432;28;20044;-66
2023/08/08 10:51:46;;;;;;;0.63;0.25;;;23.60;45.20;;;;;;5051193;28;20072;-66
2023/08/08 10:54:17;;;;;;;0.30;0.30;;;23.70;45.40;;;;;;5065257;28;20056;-61
2023/08/08 10:56:55;;;;;;;0.50;0.40;;;23.70;45.40;;;;;;5073784;28;20352;-61
2023/08/08 10:59:26;;;;;;;0.40;0.20;;;23.70;45.40;;;;;;5066531;28;20131;-63
2023/08/08 11:01:53;;;;;;;2.78;0.47;;;23.70;45.30;;;;;;5061636;28;20040;-65
2023/08/08 11:04:21;;;;;;;2.35;0.50;;;23.70;45.10;;;;;;5083648;28;20114;-63
2023/08/08 11:06:54;;;;;;;0.65;0.40;;;23.80;45.30;;;;;;5067472;28;20052;-67
2023/08/08 11:09:20;;;;;;;1.30;0.43;;;23.70;45.30;;;;;;5067376;28;20404;-67
2023/08/08 11:11:47;;;;;;;2.78;0.45;;;23.80;45.30;;;;;;5082937;28;20047;-65
2023/08/08 11:14:18;;;;;;;2.55;0.60;;;23.80;45.30;;;;;;5069918;28;20056;-66
2023/08/08 11:16:46;;;;;;;2.03;0.63;;;23.80;45.40;;;;;;5047887;28;20088;-67
2023/08/08 11:19:13;;;;;;;1.88;0.60;;;23.80;45.40;;;;;;5066085;28;20401;-66
2023/08/08 11:21:46;;;;;;;4.53;0.70;;;23.80;45.40;;;;;;5069012;28;20028;-66
2023/08/08 11:24:15;;;;;;;1.80;0.70;;;23.90;45.70;;;;;;5065144;28;20024;-65
2023/08/08 11:26:45;;;;;;;1.98;0.40;;;23.90;45.80;;;;;;5060600;28;20099;-66
2023/08/08 11:29:11;;;;;;;4.05;0.52;;;23.90;45.80;;;;;;5048161;28;20035;-68
2023/08/08 11:31:38;;;;;;;1.80;0.60;;;23.90;45.90;;;;;;5054252;28;20073;-71
2023/08/08 11:34:05;;;;;;;2.47;0.57;;;23.90;45.90;;;;;;5048335;28;20116;-67
2023/08/08 11:36:35;;;;;;;1.20;0.40;;;24.00;46.00;;;;;;5067817;28;20043;-70
2023/08/08 11:39:07;;;;;;;1.48;0.40;;;24.00;46.00;;;;;;5069321;28;20020;-69
2023/08/08 11:41:35;;;;;;;1.30;0.55;;;24.10;46.00;;;;;;5046144;28;20042;-69
2023/08/08 11:44:10;;;;;;;0.77;0.32;;;24.10;45.90;;;;;;5075352;28;20038;-66
2023/08/08 11:46:45;;;;;;;0.83;0.40;;;24.20;45.70;;;;;;5058659;28;20049;-69
2023/08/08 11:49:14;;;;;;;0.80;0.35;;;24.30;45.60;;;;;;5071670;28;20284;-68
2023/08/08 11:51:43;;;;;;;0.77;0.40;;;24.40;45.40;;;;;;5072638;28;20032;-68
2023/08/08 11:54:09;;;;;;;0.68;0.40;;;24.50;45.30;;;;;;5049423;28;20041;-70
2023/08/08 11:56:36;;;;;;;1.65;0.40;;;24.60;45.10;;;;;;5074267;28;20094;-67
2023/08/08 11:59:07;;;;;;;1.45;0.45;;;24.70;45.00;;;;;;5047215;28;20100;-69
2023/08/08 12:01:37;;;;;;;0.30;0.30;;;24.80;44.80;;;;;;5064975;28;20017;-67
2023/08/08 12:04:09;;;;;;;0.60;0.32;;;24.90;44.70;;;;;;5071928;28;20044;-68
2023/08/08 12:06:45;;;;;;;0.47;0.38;;;25.00;44.40;;;;;;5056272;28;20076;-71
2023/08/08 12:09:14;;;;;;;0.85;0.50;;;25.10;44.20;;;;;;5067945;28;20028;-68
2023/08/08 12:11:41;;;;;;;0.70;0.45;;;25.20;44.10;;;;;;5065191;28;20061;-65
2023/08/08 12:14:13;;;;;;;0.10;0.10;;;25.20;43.90;;;;;;5031580;28;20444;-68
2023/08/08 12:16:40;;;;;;;1.30;0.30;;;25.30;43.70;;;;;;5063596;28;20087;-67
2023/08/08 12:19:12;;;;;;;0.73;0.40;;;25.30;43.50;;;;;;5049651;28;20024;-66
2023/08/08 12:21:38;;;;;;;0.93;0.43;;;25.40;43.40;;;;;;5062497;28;20424;-65
2023/08/08 12:24:09;;;;;;;0.55;0.40;;;25.40;43.40;;;;;;5068597;28;20032;-65
2023/08/08 12:26:36;;;;;;;0.60;0.30;;;25.40;43.40;;;;;;5073759;28;20044;-65
2023/08/08 12:29:02;;;;;;;0.90;0.52;;;25.40;43.30;;;;;;5054772;28;20325;-66
2023/08/08 12:31:29;;;;;;;1.55;0.50;;;25.30;43.20;;;;;;5072960;28;20450;-66
2023/08/08 12:33:55;;;;;;;1.10;0.40;;;25.30;43.20;;;;;;5055983;28;20044;-68
2023/08/08 12:36:27;;;;;;;0.70;0.30;;;25.30;43.10;;;;;;5072327;28;20100;-67
2023/08/08 12:38:53;;;;;;;0.40;0.20;;;25.30;43.10;;;;;;5067140;28;20040;-67
2023/08/08 12:41:20;;;;;;;0.57;0.25;;;25.20;42.90;;;;;;5058601;28;20021;-69
2023/08/08 12:43:47;;;;;;;0.30;0.30;;;25.20;42.90;;;;;;5071361;28;20027;-69
2023/08/08 12:46:20;;;;;;;1.05;0.40;;;25.20;42.90;;;;;;5064719;28;20044;-66
2023/08/08 12:48:47;;;;;;;0.82;0.40;;;25.20;42.90;;;;;;5077669;28;20406;-67